»·PEaware :: N2MZ KSAN-CL35

N2MZ :: KSAN-CL35

FLIGHT INFORMATION

Flight Status: Arrived
Operator: Privately registered:
United States
More flights under this callsign
Pilot: Mike Z. (25595)
Aircraft: CESSNA 208 CARAVAN
(C208)
More flights by this aircraft type
Origin: KSAN San Diego Intl-Lindbergh
United States
Destination: CL35 Warner Springs
United States
More flights between these airports :: More routes between these airports
Route: +JLI
File this flight plan on PilotEdge
Remarks:
Altitude:
(Current/Filed)
9,000ft
Speed:
(Current/Filed)
150kts
Departed: 23-Nov-19 10:56 AM
Arrived: 23-Nov-19 11:28 AM
Distance/Time
Traveled:
42nm/0:32
Distance/Time
To Go:
Arrived

Flight Plot

Page will automatically refresh every two minutes.

Flight plan parsing failed; only flown route is shown


Map Options




Map Legend


Flown Route
Filed Route
Departure Airport
Arrival Airport
Navaid (VOR, NDB)
Fix

Horizontal Profiles

Position Reports

Time Latitude Longitude Heading Altitude Ground
Speed
23-Nov-19 10:34 32.732421 -117.176641 194 23ft 0kts
23-Nov-19 10:36 32.732421 -117.176641 194 23ft 0kts
23-Nov-19 10:36 32.732421 -117.176641 194 23ft 0kts
23-Nov-19 10:37 32.732421 -117.176641 194 23ft 0kts
23-Nov-19 10:38 32.732421 -117.176641 194 23ft 0kts
23-Nov-19 10:39 32.732421 -117.176641 194 23ft 0kts
23-Nov-19 10:40 32.732421 -117.176641 194 23ft 0kts
23-Nov-19 10:41 32.732421 -117.176641 194 23ft 0kts
23-Nov-19 10:42 32.732421 -117.176641 194 23ft 0kts
23-Nov-19 10:43 32.732421 -117.176641 194 23ft 0kts
23-Nov-19 10:44 32.732421 -117.176641 194 23ft 0kts
23-Nov-19 10:45 32.732421 -117.176641 194 23ft 0kts
23-Nov-19 10:46 32.732421 -117.176641 194 23ft 0kts
23-Nov-19 10:47 32.732421 -117.176641 194 23ft 0kts
23-Nov-19 10:48 32.732421 -117.176641 194 23ft 0kts
23-Nov-19 10:49 32.731703 -117.176873 166 21ft 12kts
23-Nov-19 10:50 32.730882 -117.175126 228 24ft 0kts
23-Nov-19 10:51 32.730882 -117.175127 228 24ft 0kts
23-Nov-19 10:52 32.730882 -117.175126 229 24ft 0kts
23-Nov-19 10:53 32.730882 -117.175126 229 24ft 0kts
23-Nov-19 10:54 32.730851 -117.175145 201 24ft 2kts
23-Nov-19 10:55 32.734056 -117.193118 283 310ft 111kts
23-Nov-19 10:56 32.752236 -117.218865 319 1661ft 110kts
23-Nov-19 10:57 32.779627 -117.247849 317 2091ft 142kts
23-Nov-19 10:58 32.805116 -117.272026 347 3403ft 110kts
23-Nov-19 10:59 32.837585 -117.279643 347 3972ft 141kts
23-Nov-19 11:00 32.878535 -117.289262 348 4010ft 154kts
23-Nov-19 11:01 32.921094 -117.299124 348 4010ft 157kts
23-Nov-19 11:02 32.954730 -117.306872 351 4008ft 157kts
23-Nov-19 11:03 32.969699 -117.272477 86 5007ft 115kts
23-Nov-19 11:04 32.974639 -117.236739 76 6117ft 111kts
23-Nov-19 11:05 32.982662 -117.200919 73 7119ft 111kts
23-Nov-19 11:06 32.991367 -117.166077 72 8111ft 108kts
23-Nov-19 11:07 33.000012 -117.130709 76 8843ft 125kts
23-Nov-19 11:08 33.011445 -117.087124 71 8998ft 154kts
23-Nov-19 11:09 33.023395 -117.036832 66 8939ft 161kts
23-Nov-19 11:10 33.037412 -116.987156 72 9028ft 159kts
23-Nov-19 11:11 33.050855 -116.935278 72 9267ft 166kts
23-Nov-19 11:12 33.064564 -116.882145 72 9453ft 167kts
23-Nov-19 11:13 33.076623 -116.823763 70 8908ft 180kts
23-Nov-19 11:14 33.094053 -116.768849 70 8952ft 168kts
23-Nov-19 11:15 33.107485 -116.715154 72 8975ft 174kts
23-Nov-19 11:16 33.103645 -116.664930 158 8987ft 172kts
23-Nov-19 11:17 33.072809 -116.628183 69 9006ft 171kts
23-Nov-19 11:18 33.114565 -116.626067 346 8998ft 173kts
23-Nov-19 11:19 33.161030 -116.637943 347 8710ft 164kts
23-Nov-19 11:20 33.203343 -116.648766 347 6890ft 151kts
23-Nov-19 11:21 33.235555 -116.674983 306 4878ft 145kts
23-Nov-19 11:22 33.249354 -116.700709 62 3559ft 98kts
23-Nov-19 11:23 33.249917 -116.700892 27 3304ft 93kts
23-Nov-19 11:24 33.253887 -116.671901 96 3552ft 94kts
23-Nov-19 11:25 33.257157 -116.641563 43 3923ft 89kts
23-Nov-19 11:26 33.280579 -116.645509 342 3865ft 86kts
23-Nov-19 11:27 33.284551 -116.667539 267 2887ft 14kts
23-Nov-19 11:28 33.284764 -116.669306 163 2887ft 0kts
23-Nov-19 11:29 33.284764 -116.669306 163 2887ft 0kts
23-Nov-19 11:30 33.284764 -116.669306 163 2887ft 0kts
23-Nov-19 11:31 33.284764 -116.669306 163 2887ft 0kts
23-Nov-19 11:32 33.284764 -116.669306 163 2887ft 0kts
23-Nov-19 11:33 33.284764 -116.669306 163 2887ft 0kts
23-Nov-19 11:34 33.284764 -116.669306 163 2887ft 0kts
23-Nov-19 11:35 33.284764 -116.669306 163 2887ft 0kts
23-Nov-19 11:36 33.284764 -116.669306 163 2887ft 0kts
23-Nov-19 11:37 33.284764 -116.669306 163 2887ft 0kts
23-Nov-19 11:38 33.284764 -116.669306 163 2887ft 0kts
23-Nov-19 11:39 33.284764 -116.669306 163 2887ft 0kts
23-Nov-19 11:40 33.284764 -116.669306 163 2887ft 0kts
23-Nov-19 11:41 33.284764 -116.669306 163 2887ft 0kts

Navigation Log

Ident Type
Flight plan parsing failed, navigation log unavailable